sensor_id;sensor_type;location;lat;lon;timestamp;P1;P2;P0
43280;PMS5003;62175;49.416;8.690;2023-11-22T00:01:49;4;4;
43280;PMS5003;62175;49.416;8.690;2023-11-22T00:04:16;4;4;
43280;PMS5003;62175;49.416;8.690;2023-11-22T00:06:43;5;5;
43280;PMS5003;62175;49.416;8.690;2023-11-22T00:09:10;3;3;
43280;PMS5003;62175;49.416;8.690;2023-11-22T00:11:38;6;5;
43280;PMS5003;62175;49.416;8.690;2023-11-22T00:14:05;4;4;
43280;PMS5003;62175;49.416;8.690;2023-11-22T00:16:32;5;5;
43280;PMS5003;62175;49.416;8.690;2023-11-22T00:18:59;3;3;
43280;PMS5003;62175;49.416;8.690;2023-11-22T00:21:27;4;4;
43280;PMS5003;62175;49.416;8.690;2023-11-22T00:23:54;4;4;
43280;PMS5003;62175;49.416;8.690;2023-11-22T00:26:21;2;2;
43280;PMS5003;62175;49.416;8.690;2023-11-22T00:28:48;3;3;
43280;PMS5003;62175;49.416;8.690;2023-11-22T00:31:16;4;3;
43280;PMS5003;62175;49.416;8.690;2023-11-22T00:33:43;5;5;
43280;PMS5003;62175;49.416;8.690;2023-11-22T00:36:10;5;4;
43280;PMS5003;62175;49.416;8.690;2023-11-22T00:38:37;6;4;
43280;PMS5003;62175;49.416;8.690;2023-11-22T00:41:05;4;4;
43280;PMS5003;62175;49.416;8.690;2023-11-22T00:43:32;5;4;
43280;PMS5003;62175;49.416;8.690;2023-11-22T00:45:59;4;3;
43280;PMS5003;62175;49.416;8.690;2023-11-22T00:48:26;4;4;
43280;PMS5003;62175;49.416;8.690;2023-11-22T00:50:54;5;4;
43280;PMS5003;62175;49.416;8.690;2023-11-22T00:53:21;4;4;
43280;PMS5003;62175;49.416;8.690;2023-11-22T00:55:48;5;4;
43280;PMS5003;62175;49.416;8.690;2023-11-22T00:58:15;4;4;
43280;PMS5003;62175;49.416;8.690;2023-11-22T01:00:43;5;5;
43280;PMS5003;62175;49.416;8.690;2023-11-22T01:03:10;3;3;
43280;PMS5003;62175;49.416;8.690;2023-11-22T01:05:37;4;4;
43280;PMS5003;62175;49.416;8.690;2023-11-22T01:08:04;4;4;
43280;PMS5003;62175;49.416;8.690;2023-11-22T01:10:32;5;4;
43280;PMS5003;62175;49.416;8.690;2023-11-22T01:12:59;4;3;
43280;PMS5003;62175;49.416;8.690;2023-11-22T01:15:26;7;7;
43280;PMS5003;62175;49.416;8.690;2023-11-22T01:17:53;5;5;
43280;PMS5003;62175;49.416;8.690;2023-11-22T01:20:21;5;5;
43280;PMS5003;62175;49.416;8.690;2023-11-22T01:22:48;5;5;
43280;PMS5003;62175;49.416;8.690;2023-11-22T01:25:15;4;4;
43280;PMS5003;62175;49.416;8.690;2023-11-22T01:27:42;7;6;
43280;PMS5003;62175;49.416;8.690;2023-11-22T01:30:10;5;5;
43280;PMS5003;62175;49.416;8.690;2023-11-22T01:32:37;6;6;
43280;PMS5003;62175;49.416;8.690;2023-11-22T01:35:05;5;5;
43280;PMS5003;62175;49.416;8.690;2023-11-22T01:37:33;6;6;
43280;PMS5003;62175;49.416;8.690;2023-11-22T01:40:00;6;5;
43280;PMS5003;62175;49.416;8.690;2023-11-22T01:42:27;6;6;
43280;PMS5003;62175;49.416;8.690;2023-11-22T01:44:55;6;5;
43280;PMS5003;62175;49.416;8.690;2023-11-22T01:47:22;7;7;
43280;PMS5003;62175;49.416;8.690;2023-11-22T01:49:49;6;6;
43280;PMS5003;62175;49.416;8.690;2023-11-22T01:52:16;7;6;
43280;PMS5003;62175;49.416;8.690;2023-11-22T01:54:43;6;5;
43280;PMS5003;62175;49.416;8.690;2023-11-22T01:57:11;10;7;
43280;PMS5003;62175;49.416;8.690;2023-11-22T01:59:38;4;4;
43280;PMS5003;62175;49.416;8.690;2023-11-22T02:02:06;4;4;
43280;PMS5003;62175;49.416;8.690;2023-11-22T02:04:33;5;4;
43280;PMS5003;62175;49.416;8.690;2023-11-22T02:07:01;6;6;
43280;PMS5003;62175;49.416;8.690;2023-11-22T02:09:29;6;6;
43280;PMS5003;62175;49.416;8.690;2023-11-22T02:11:56;5;4;
43280;PMS5003;62175;49.416;8.690;2023-11-22T02:14:23;7;5;
43280;PMS5003;62175;49.416;8.690;2023-11-22T02:16:51;4;4;
43280;PMS5003;62175;49.416;8.690;2023-11-22T02:19:18;6;5;
43280;PMS5003;62175;49.416;8.690;2023-11-22T02:21:45;3;3;
43280;PMS5003;62175;49.416;8.690;2023-11-22T02:24:12;4;4;
43280;PMS5003;62175;49.416;8.690;2023-11-22T02:26:43;5;5;
43280;PMS5003;62175;49.416;8.690;2023-11-22T02:29:10;7;6;
43280;PMS5003;62175;49.416;8.690;2023-11-22T02:31:38;4;4;
43280;PMS5003;62175;49.416;8.690;2023-11-22T02:34:06;4;3;
43280;PMS5003;62175;49.416;8.690;2023-11-22T02:36:33;5;5;
43280;PMS5003;62175;49.416;8.690;2023-11-22T02:39:00;4;4;
43280;PMS5003;62175;49.416;8.690;2023-11-22T02:41:28;4;4;
43280;PMS5003;62175;49.416;8.690;2023-11-22T02:43:55;5;5;
43280;PMS5003;62175;49.416;8.690;2023-11-22T02:46:22;5;5;
43280;PMS5003;62175;49.416;8.690;2023-11-22T02:48:49;4;4;
43280;PMS5003;62175;49.416;8.690;2023-11-22T02:51:17;6;5;
43280;PMS5003;62175;49.416;8.690;2023-11-22T02:53:44;6;6;
43280;PMS5003;62175;49.416;8.690;2023-11-22T02:56:11;3;3;
43280;PMS5003;62175;49.416;8.690;2023-11-22T02:58:39;4;4;
43280;PMS5003;62175;49.416;8.690;2023-11-22T03:01:07;5;5;
43280;PMS5003;62175;49.416;8.690;2023-11-22T03:03:34;4;4;
43280;PMS5003;62175;49.416;8.690;2023-11-22T03:06:01;5;5;
43280;PMS5003;62175;49.416;8.690;2023-11-22T03:08:28;6;5;
43280;PMS5003;62175;49.416;8.690;2023-11-22T03:10:56;6;5;
43280;PMS5003;62175;49.416;8.690;2023-11-22T03:13:23;6;5;
43280;PMS5003;62175;49.416;8.690;2023-11-22T03:15:50;4;4;
43280;PMS5003;62175;49.416;8.690;2023-11-22T03:18:17;6;5;
43280;PMS5003;62175;49.416;8.690;2023-11-22T03:20:45;6;6;
43280;PMS5003;62175;49.416;8.690;2023-11-22T03:23:12;5;5;
43280;PMS5003;62175;49.416;8.690;2023-11-22T03:25:39;6;5;
43280;PMS5003;62175;49.416;8.690;2023-11-22T03:28:06;5;4;
43280;PMS5003;62175;49.416;8.690;2023-11-22T03:30:33;6;6;
43280;PMS5003;62175;49.416;8.690;2023-11-22T03:33:01;6;6;
43280;PMS5003;62175;49.416;8.690;2023-11-22T03:35:28;6;5;
43280;PMS5003;62175;49.416;8.690;2023-11-22T03:37:55;6;5;
43280;PMS5003;62175;49.416;8.690;2023-11-22T03:40:23;8;7;
43280;PMS5003;62175;49.416;8.690;2023-11-22T03:42:51;5;5;
43280;PMS5003;62175;49.416;8.690;2023-11-22T03:45:18;5;5;
43280;PMS5003;62175;49.416;8.690;2023-11-22T03:47:45;6;6;
43280;PMS5003;62175;49.416;8.690;2023-11-22T03:50:13;6;5;
43280;PMS5003;62175;49.416;8.690;2023-11-22T03:52:39;6;6;
43280;PMS5003;62175;49.416;8.690;2023-11-22T03:55:07;4;4;
43280;PMS5003;62175;49.416;8.690;2023-11-22T03:57:35;4;4;
43280;PMS5003;62175;49.416;8.690;2023-11-22T04:00:03;7;7;
43280;PMS5003;62175;49.416;8.690;2023-11-22T04:02:30;9;7;
43280;PMS5003;62175;49.416;8.690;2023-11-22T04:04:58;11;9;
43280;PMS5003;62175;49.416;8.690;2023-11-22T04:07:25;8;8;
43280;PMS5003;62175;49.416;8.690;2023-11-22T04:09:53;5;5;
43280;PMS5003;62175;49.416;8.690;2023-11-22T04:12:21;5;5;
43280;PMS5003;62175;49.416;8.690;2023-11-22T04:14:48;5;5;
43280;PMS5003;62175;49.416;8.690;2023-11-22T04:17:15;6;5;
43280;PMS5003;62175;49.416;8.690;2023-11-22T04:19:43;5;4;
43280;PMS5003;62175;49.416;8.690;2023-11-22T04:22:10;8;8;
43280;PMS5003;62175;49.416;8.690;2023-11-22T04:24:37;8;6;
43280;PMS5003;62175;49.416;8.690;2023-11-22T04:27:04;8;7;
43280;PMS5003;62175;49.416;8.690;2023-11-22T04:29:32;5;4;
43280;PMS5003;62175;49.416;8.690;2023-11-22T04:31:59;6;6;
43280;PMS5003;62175;49.416;8.690;2023-11-22T04:34:26;4;4;
43280;PMS5003;62175;49.416;8.690;2023-11-22T04:36:54;5;5;
43280;PMS5003;62175;49.416;8.690;2023-11-22T04:39:21;5;5;
43280;PMS5003;62175;49.416;8.690;2023-11-22T04:41:48;4;4;
43280;PMS5003;62175;49.416;8.690;2023-11-22T04:44:16;4;4;
43280;PMS5003;62175;49.416;8.690;2023-11-22T04:46:43;4;4;
43280;PMS5003;62175;49.416;8.690;2023-11-22T04:49:10;7;6;
43280;PMS5003;62175;49.416;8.690;2023-11-22T04:51:38;5;5;
43280;PMS5003;62175;49.416;8.690;2023-11-22T04:54:05;5;3;
43280;PMS5003;62175;49.416;8.690;2023-11-22T04:56:32;4;4;
43280;PMS5003;62175;49.416;8.690;2023-11-22T04:59:00;6;5;
43280;PMS5003;62175;49.416;8.690;2023-11-22T05:01:31;3;3;
43280;PMS5003;62175;49.416;8.690;2023-11-22T05:03:59;3;3;
43280;PMS5003;62175;49.416;8.690;2023-11-22T05:06:26;6;5;
43280;PMS5003;62175;49.416;8.690;2023-11-22T05:08:53;4;4;
43280;PMS5003;62175;49.416;8.690;2023-11-22T05:11:21;4;4;
43280;PMS5003;62175;49.416;8.690;2023-11-22T05:13:48;5;5;
43280;PMS5003;62175;49.416;8.690;2023-11-22T05:16:15;4;4;
43280;PMS5003;62175;49.416;8.690;2023-11-22T05:18:43;4;3;
43280;PMS5003;62175;49.416;8.690;2023-11-22T05:21:10;4;4;
43280;PMS5003;62175;49.416;8.690;2023-11-22T05:23:37;3;3;
43280;PMS5003;62175;49.416;8.690;2023-11-22T05:26:05;5;5;
43280;PMS5003;62175;49.416;8.690;2023-11-22T05:28:33;5;4;
43280;PMS5003;62175;49.416;8.690;2023-11-22T05:31:02;6;5;
43280;PMS5003;62175;49.416;8.690;2023-11-22T05:33:29;3;3;
43280;PMS5003;62175;49.416;8.690;2023-11-22T05:35:56;5;4;
43280;PMS5003;62175;49.416;8.690;2023-11-22T05:38:24;5;5;
43280;PMS5003;62175;49.416;8.690;2023-11-22T05:40:51;3;3;
43280;PMS5003;62175;49.416;8.690;2023-11-22T05:43:18;4;4;
43280;PMS5003;62175;49.416;8.690;2023-11-22T05:45:46;4;4;
43280;PMS5003;62175;49.416;8.690;2023-11-22T05:48:13;3;3;
43280;PMS5003;62175;49.416;8.690;2023-11-22T05:50:40;4;4;
43280;PMS5003;62175;49.416;8.690;2023-11-22T05:53:07;3;3;
43280;PMS5003;62175;49.416;8.690;2023-11-22T05:55:34;6;6;
43280;PMS5003;62175;49.416;8.690;2023-11-22T05:58:02;4;4;
43280;PMS5003;62175;49.416;8.690;2023-11-22T06:00:29;5;4;
43280;PMS5003;62175;49.416;8.690;2023-11-22T06:02:56;6;4;
43280;PMS5003;62175;49.416;8.690;2023-11-22T06:05:24;3;3;
43280;PMS5003;62175;49.416;8.690;2023-11-22T06:07:51;6;5;
43280;PMS5003;62175;49.416;8.690;2023-11-22T06:10:18;6;4;
43280;PMS5003;62175;49.416;8.690;2023-11-22T06:12:46;4;4;
43280;PMS5003;62175;49.416;8.690;2023-11-22T06:15:13;5;5;
43280;PMS5003;62175;49.416;8.690;2023-11-22T06:17:40;4;4;
43280;PMS5003;62175;49.416;8.690;2023-11-22T06:20:09;6;6;
43280;PMS5003;62175;49.416;8.690;2023-11-22T06:22:37;5;4;
43280;PMS5003;62175;49.416;8.690;2023-11-22T06:25:04;8;5;
43280;PMS5003;62175;49.416;8.690;2023-11-22T06:27:31;6;6;
43280;PMS5003;62175;49.416;8.690;2023-11-22T06:29:59;6;6;
43280;PMS5003;62175;49.416;8.690;2023-11-22T06:32:26;5;5;
43280;PMS5003;62175;49.416;8.690;2023-11-22T06:34:53;4;4;
43280;PMS5003;62175;49.416;8.690;2023-11-22T06:37:21;5;4;
43280;PMS5003;62175;49.416;8.690;2023-11-22T06:39:48;5;5;
43280;PMS5003;62175;49.416;8.690;2023-11-22T06:42:15;5;5;
43280;PMS5003;62175;49.416;8.690;2023-11-22T06:44:42;5;5;
43280;PMS5003;62175;49.416;8.690;2023-11-22T06:47:10;5;4;
43280;PMS5003;62175;49.416;8.690;2023-11-22T06:49:37;6;6;
43280;PMS5003;62175;49.416;8.690;2023-11-22T06:52:05;8;7;
43280;PMS5003;62175;49.416;8.690;2023-11-22T06:54:32;5;5;
43280;PMS5003;62175;49.416;8.690;2023-11-22T06:56:59;5;5;
43280;PMS5003;62175;49.416;8.690;2023-11-22T06:59:27;5;5;
43280;PMS5003;62175;49.416;8.690;2023-11-22T07:01:54;7;6;
43280;PMS5003;62175;49.416;8.690;2023-11-22T07:04:21;6;5;
43280;PMS5003;62175;49.416;8.690;2023-11-22T07:06:49;5;5;
43280;PMS5003;62175;49.416;8.690;2023-11-22T07:09:16;6;6;
43280;PMS5003;62175;49.416;8.690;2023-11-22T07:11:43;5;5;
43280;PMS5003;62175;49.416;8.690;2023-11-22T07:14:11;5;5;
43280;PMS5003;62175;49.416;8.690;2023-11-22T07:16:38;5;5;
43280;PMS5003;62175;49.416;8.690;2023-11-22T07:19:05;4;4;
43280;PMS5003;62175;49.416;8.690;2023-11-22T07:21:33;5;4;
43280;PMS5003;62175;49.416;8.690;2023-11-22T07:24:00;5;5;
43280;PMS5003;62175;49.416;8.690;2023-11-22T07:26:27;5;4;
43280;PMS5003;62175;49.416;8.690;2023-11-22T07:28:55;7;7;
43280;PMS5003;62175;49.416;8.690;2023-11-22T07:31:22;5;5;
43280;PMS5003;62175;49.416;8.690;2023-11-22T07:33:50;8;7;
43280;PMS5003;62175;49.416;8.690;2023-11-22T07:36:17;7;7;
43280;PMS5003;62175;49.416;8.690;2023-11-22T07:38:44;7;5;
43280;PMS5003;62175;49.416;8.690;2023-11-22T07:41:12;5;5;
43280;PMS5003;62175;49.416;8.690;2023-11-22T07:43:39;7;7;
43280;PMS5003;62175;49.416;8.690;2023-11-22T07:46:07;7;6;
43280;PMS5003;62175;49.416;8.690;2023-11-22T07:48:34;7;7;
43280;PMS5003;62175;49.416;8.690;2023-11-22T07:51:02;6;5;
43280;PMS5003;62175;49.416;8.690;2023-11-22T07:53:29;5;4;
43280;PMS5003;62175;49.416;8.690;2023-11-22T07:55:57;5;5;
43280;PMS5003;62175;49.416;8.690;2023-11-22T07:58:24;4;4;
43280;PMS5003;62175;49.416;8.690;2023-11-22T08:00:51;4;4;
43280;PMS5003;62175;49.416;8.690;2023-11-22T08:03:19;7;6;
43280;PMS5003;62175;49.416;8.690;2023-11-22T08:05:46;4;4;
43280;PMS5003;62175;49.416;8.690;2023-11-22T08:08:13;7;6;
43280;PMS5003;62175;49.416;8.690;2023-11-22T08:10:41;6;6;
43280;PMS5003;62175;49.416;8.690;2023-11-22T08:13:08;7;5;
43280;PMS5003;62175;49.416;8.690;2023-11-22T08:15:35;5;5;
43280;PMS5003;62175;49.416;8.690;2023-11-22T08:18:03;5;4;
43280;PMS5003;62175;49.416;8.690;2023-11-22T08:20:30;9;7;
43280;PMS5003;62175;49.416;8.690;2023-11-22T08:22:57;5;5;
43280;PMS5003;62175;49.416;8.690;2023-11-22T08:25:24;6;5;
43280;PMS5003;62175;49.416;8.690;2023-11-22T08:27:52;5;5;
43280;PMS5003;62175;49.416;8.690;2023-11-22T08:30:19;5;5;
43280;PMS5003;62175;49.416;8.690;2023-11-22T08:32:48;6;6;
43280;PMS5003;62175;49.416;8.690;2023-11-22T08:35:15;5;5;
43280;PMS5003;62175;49.416;8.690;2023-11-22T08:37:42;6;6;
43280;PMS5003;62175;49.416;8.690;2023-11-22T08:40:10;7;7;
43280;PMS5003;62175;49.416;8.690;2023-11-22T08:42:42;7;6;
43280;PMS5003;62175;49.416;8.690;2023-11-22T08:45:10;6;6;
43280;PMS5003;62175;49.416;8.690;2023-11-22T08:47:37;7;7;
43280;PMS5003;62175;49.416;8.690;2023-11-22T08:50:06;6;5;
43280;PMS5003;62175;49.416;8.690;2023-11-22T08:52:35;5;5;
43280;PMS5003;62175;49.416;8.690;2023-11-22T08:55:03;8;8;
43280;PMS5003;62175;49.416;8.690;2023-11-22T08:57:31;6;6;
43280;PMS5003;62175;49.416;8.690;2023-11-22T08:59:59;7;6;
43280;PMS5003;62175;49.416;8.690;2023-11-22T09:02:26;8;7;
43280;PMS5003;62175;49.416;8.690;2023-11-22T09:04:53;9;7;
43280;PMS5003;62175;49.416;8.690;2023-11-22T09:07:21;5;5;
43280;PMS5003;62175;49.416;8.690;2023-11-22T09:09:48;6;6;
43280;PMS5003;62175;49.416;8.690;2023-11-22T09:12:15;6;5;
43280;PMS5003;62175;49.416;8.690;2023-11-22T09:14:43;6;5;
43280;PMS5003;62175;49.416;8.690;2023-11-22T09:17:10;6;6;
43280;PMS5003;62175;49.416;8.690;2023-11-22T09:19:38;5;5;
43280;PMS5003;62175;49.416;8.690;2023-11-22T09:22:06;7;6;
43280;PMS5003;62175;49.416;8.690;2023-11-22T09:24:33;8;6;
43280;PMS5003;62175;49.416;8.690;2023-11-22T09:27:00;7;6;
43280;PMS5003;62175;49.416;8.690;2023-11-22T09:29:28;7;6;
43280;PMS5003;62175;49.416;8.690;2023-11-22T09:31:55;7;6;
43280;PMS5003;62175;49.416;8.690;2023-11-22T09:34:22;6;6;
43280;PMS5003;62175;49.416;8.690;2023-11-22T09:36:50;6;6;
43280;PMS5003;62175;49.416;8.690;2023-11-22T09:39:17;5;4;
43280;PMS5003;62175;49.416;8.690;2023-11-22T09:41:44;6;6;
43280;PMS5003;62175;49.416;8.690;2023-11-22T09:44:12;7;6;
43280;PMS5003;62175;49.416;8.690;2023-11-22T09:46:39;5;5;
43280;PMS5003;62175;49.416;8.690;2023-11-22T09:49:08;7;6;
43280;PMS5003;62175;49.416;8.690;2023-11-22T09:51:39;6;6;
43280;PMS5003;62175;49.416;8.690;2023-11-22T09:54:10;6;5;
43280;PMS5003;62175;49.416;8.690;2023-11-22T09:56:38;7;7;
43280;PMS5003;62175;49.416;8.690;2023-11-22T09:59:06;6;6;
43280;PMS5003;62175;49.416;8.690;2023-11-22T10:01:33;7;6;
43280;PMS5003;62175;49.416;8.690;2023-11-22T10:04:00;6;6;
43280;PMS5003;62175;49.416;8.690;2023-11-22T10:06:27;7;7;
43280;PMS5003;62175;49.416;8.690;2023-11-22T10:08:55;8;8;
43280;PMS5003;62175;49.416;8.690;2023-11-22T10:11:22;12;10;
43280;PMS5003;62175;49.416;8.690;2023-11-22T10:13:49;8;7;
43280;PMS5003;62175;49.416;8.690;2023-11-22T10:16:17;8;6;
43280;PMS5003;62175;49.416;8.690;2023-11-22T10:18:45;7;7;
43280;PMS5003;62175;49.416;8.690;2023-11-22T10:22:20;4;4;
43280;PMS5003;62175;49.416;8.690;2023-11-22T10:24:47;6;6;
43280;PMS5003;62175;49.416;8.690;2023-11-22T10:27:15;7;7;
43280;PMS5003;62175;49.416;8.690;2023-11-22T10:29:42;9;8;
43280;PMS5003;62175;49.416;8.690;2023-11-22T10:32:10;7;6;
43280;PMS5003;62175;49.416;8.690;2023-11-22T10:34:37;6;5;
43280;PMS5003;62175;49.416;8.690;2023-11-22T10:37:04;5;4;
43280;PMS5003;62175;49.416;8.690;2023-11-22T10:39:31;6;6;
43280;PMS5003;62175;49.416;8.690;2023-11-22T10:41:59;7;6;
43280;PMS5003;62175;49.416;8.690;2023-11-22T10:44:26;8;7;
43280;PMS5003;62175;49.416;8.690;2023-11-22T10:47:32;7;6;
43280;PMS5003;62175;49.416;8.690;2023-11-22T10:50:09;4;4;
43280;PMS5003;62175;49.416;8.690;2023-11-22T10:52:37;5;5;
43280;PMS5003;62175;49.416;8.690;2023-11-22T10:55:08;6;6;
43280;PMS5003;62175;49.416;8.690;2023-11-22T10:57:44;6;6;
43280;PMS5003;62175;49.416;8.690;2023-11-22T11:00:13;6;5;
43280;PMS5003;62175;49.416;8.690;2023-11-22T11:02:45;7;7;
43280;PMS5003;62175;49.416;8.690;2023-11-22T11:05:16;6;5;
43280;PMS5003;62175;49.416;8.690;2023-11-22T11:07:49;8;6;
43280;PMS5003;62175;49.416;8.690;2023-11-22T11:10:21;6;6;
43280;PMS5003;62175;49.416;8.690;2023-11-22T11:12:48;7;6;
43280;PMS5003;62175;49.416;8.690;2023-11-22T11:15:16;8;6;
43280;PMS5003;62175;49.416;8.690;2023-11-22T11:17:44;5;5;
43280;PMS5003;62175;49.416;8.690;2023-11-22T11:20:13;5;5;
43280;PMS5003;62175;49.416;8.690;2023-11-22T11:22:43;8;8;
43280;PMS5003;62175;49.416;8.690;2023-11-22T11:25:15;8;7;
43280;PMS5003;62175;49.416;8.690;2023-11-22T11:27:44;6;5;
43280;PMS5003;62175;49.416;8.690;2023-11-22T11:30:43;7;6;
43280;PMS5003;62175;49.416;8.690;2023-11-22T11:33:12;5;4;
43280;PMS5003;62175;49.416;8.690;2023-11-22T11:35:42;7;4;
43280;PMS5003;62175;49.416;8.690;2023-11-22T11:38:12;6;6;
43280;PMS5003;62175;49.416;8.690;2023-11-22T11:40:40;6;5;
43280;PMS5003;62175;49.416;8.690;2023-11-22T11:43:08;6;6;
43280;PMS5003;62175;49.416;8.690;2023-11-22T11:45:38;6;5;
43280;PMS5003;62175;49.416;8.690;2023-11-22T11:48:08;6;5;
43280;PMS5003;62175;49.416;8.690;2023-11-22T11:50:36;5;4;
43280;PMS5003;62175;49.416;8.690;2023-11-22T11:53:06;6;6;
43280;PMS5003;62175;49.416;8.690;2023-11-22T11:55:32;6;6;
43280;PMS5003;62175;49.416;8.690;2023-11-22T11:58:04;7;6;
43280;PMS5003;62175;49.416;8.690;2023-11-22T12:00:32;7;6;
43280;PMS5003;62175;49.416;8.690;2023-11-22T12:03:03;6;5;
43280;PMS5003;62175;49.416;8.690;2023-11-22T12:05:30;7;6;
43280;PMS5003;62175;49.416;8.690;2023-11-22T12:07:58;7;7;
43280;PMS5003;62175;49.416;8.690;2023-11-22T12:10:25;8;7;
43280;PMS5003;62175;49.416;8.690;2023-11-22T12:12:52;6;6;
43280;PMS5003;62175;49.416;8.690;2023-11-22T12:15:20;8;8;
43280;PMS5003;62175;49.416;8.690;2023-11-22T12:17:48;6;6;
43280;PMS5003;62175;49.416;8.690;2023-11-22T12:20:15;7;6;
43280;PMS5003;62175;49.416;8.690;2023-11-22T12:22:43;6;6;
43280;PMS5003;62175;49.416;8.690;2023-11-22T12:25:11;5;5;
43280;PMS5003;62175;49.416;8.690;2023-11-22T12:27:39;8;7;
43280;PMS5003;62175;49.416;8.690;2023-11-22T12:30:08;6;5;
43280;PMS5003;62175;49.416;8.690;2023-11-22T12:32:38;7;5;
43280;PMS5003;62175;49.416;8.690;2023-11-22T12:35:06;8;8;
43280;PMS5003;62175;49.416;8.690;2023-11-22T12:37:34;6;6;
43280;PMS5003;62175;49.416;8.690;2023-11-22T12:40:09;7;6;
43280;PMS5003;62175;49.416;8.690;2023-11-22T12:42:48;5;4;
43280;PMS5003;62175;49.416;8.690;2023-11-22T12:45:20;8;8;
43280;PMS5003;62175;49.416;8.690;2023-11-22T12:47:47;6;6;
43280;PMS5003;62175;49.416;8.690;2023-11-22T12:50:31;6;6;
43280;PMS5003;62175;49.416;8.690;2023-11-22T12:53:07;8;7;
43280;PMS5003;62175;49.416;8.690;2023-11-22T12:55:36;5;5;
43280;PMS5003;62175;49.416;8.690;2023-11-22T12:58:03;5;5;
43280;PMS5003;62175;49.416;8.690;2023-11-22T13:00:30;6;6;
43280;PMS5003;62175;49.416;8.690;2023-11-22T13:02:57;5;5;
43280;PMS5003;62175;49.416;8.690;2023-11-22T13:05:25;6;4;
43280;PMS5003;62175;49.416;8.690;2023-11-22T13:07:52;11;8;
43280;PMS5003;62175;49.416;8.690;2023-11-22T13:10:19;4;4;
43280;PMS5003;62175;49.416;8.690;2023-11-22T13:12:47;7;7;
43280;PMS5003;62175;49.416;8.690;2023-11-22T13:15:14;6;5;
43280;PMS5003;62175;49.416;8.690;2023-11-22T13:17:41;7;6;
43280;PMS5003;62175;49.416;8.690;2023-11-22T13:20:09;6;6;
43280;PMS5003;62175;49.416;8.690;2023-11-22T13:22:36;5;4;
43280;PMS5003;62175;49.416;8.690;2023-11-22T13:25:03;10;10;
43280;PMS5003;62175;49.416;8.690;2023-11-22T13:27:30;7;6;
43280;PMS5003;62175;49.416;8.690;2023-11-22T13:29:58;7;6;
43280;PMS5003;62175;49.416;8.690;2023-11-22T13:32:25;6;5;
43280;PMS5003;62175;49.416;8.690;2023-11-22T13:34:52;6;5;
43280;PMS5003;62175;49.416;8.690;2023-11-22T13:37:22;5;4;
43280;PMS5003;62175;49.416;8.690;2023-11-22T13:39:49;6;6;
43280;PMS5003;62175;49.416;8.690;2023-11-22T13:42:16;8;6;
43280;PMS5003;62175;49.416;8.690;2023-11-22T13:44:43;6;6;
43280;PMS5003;62175;49.416;8.690;2023-11-22T13:47:11;6;5;
43280;PMS5003;62175;49.416;8.690;2023-11-22T13:49:38;7;6;
43280;PMS5003;62175;49.416;8.690;2023-11-22T13:52:05;6;5;
43280;PMS5003;62175;49.416;8.690;2023-11-22T13:54:33;5;5;
43280;PMS5003;62175;49.416;8.690;2023-11-22T13:57:00;5;4;
43280;PMS5003;62175;49.416;8.690;2023-11-22T13:59:27;6;6;
43280;PMS5003;62175;49.416;8.690;2023-11-22T14:01:55;5;5;
43280;PMS5003;62175;49.416;8.690;2023-11-22T14:04:22;6;6;
43280;PMS5003;62175;49.416;8.690;2023-11-22T14:06:49;6;6;
43280;PMS5003;62175;49.416;8.690;2023-11-22T14:09:17;8;6;
43280;PMS5003;62175;49.416;8.690;2023-11-22T14:11:49;5;4;
43280;PMS5003;62175;49.416;8.690;2023-11-22T14:14:16;4;4;
43280;PMS5003;62175;49.416;8.690;2023-11-22T14:16:43;5;5;
43280;PMS5003;62175;49.416;8.690;2023-11-22T14:19:10;5;4;
43280;PMS5003;62175;49.416;8.690;2023-11-22T14:21:38;6;6;
43280;PMS5003;62175;49.416;8.690;2023-11-22T14:24:05;4;4;
43280;PMS5003;62175;49.416;8.690;2023-11-22T14:26:33;6;6;
43280;PMS5003;62175;49.416;8.690;2023-11-22T14:29:00;7;6;
43280;PMS5003;62175;49.416;8.690;2023-11-22T14:31:27;7;6;
43280;PMS5003;62175;49.416;8.690;2023-11-22T14:33:54;8;7;
43280;PMS5003;62175;49.416;8.690;2023-11-22T14:36:22;8;8;
43280;PMS5003;62175;49.416;8.690;2023-11-22T14:38:49;9;9;
43280;PMS5003;62175;49.416;8.690;2023-11-22T14:41:16;8;7;
43280;PMS5003;62175;49.416;8.690;2023-11-22T14:43:43;9;8;
43280;PMS5003;62175;49.416;8.690;2023-11-22T14:46:11;10;8;
43280;PMS5003;62175;49.416;8.690;2023-11-22T14:48:38;7;7;
43280;PMS5003;62175;49.416;8.690;2023-11-22T14:51:06;7;7;
43280;PMS5003;62175;49.416;8.690;2023-11-22T14:53:32;9;9;
43280;PMS5003;62175;49.416;8.690;2023-11-22T14:56:00;7;7;
43280;PMS5003;62175;49.416;8.690;2023-11-22T14:58:27;10;9;
43280;PMS5003;62175;49.416;8.690;2023-11-22T15:00:55;11;10;
43280;PMS5003;62175;49.416;8.690;2023-11-22T15:03:22;11;9;
43280;PMS5003;62175;49.416;8.690;2023-11-22T15:05:49;8;8;
43280;PMS5003;62175;49.416;8.690;2023-11-22T15:08:16;7;7;
43280;PMS5003;62175;49.416;8.690;2023-11-22T15:10:44;9;9;
43280;PMS5003;62175;49.416;8.690;2023-11-22T15:13:11;10;7;
43280;PMS5003;62175;49.416;8.690;2023-11-22T15:15:38;8;7;
43280;PMS5003;62175;49.416;8.690;2023-11-22T15:18:06;9;9;
43280;PMS5003;62175;49.416;8.690;2023-11-22T15:20:33;11;11;
43280;PMS5003;62175;49.416;8.690;2023-11-22T15:23:00;10;10;
43280;PMS5003;62175;49.416;8.690;2023-11-22T15:25:27;9;9;
43280;PMS5003;62175;49.416;8.690;2023-11-22T15:27:55;10;10;
43280;PMS5003;62175;49.416;8.690;2023-11-22T15:30:22;12;11;
43280;PMS5003;62175;49.416;8.690;2023-11-22T15:32:49;10;9;
43280;PMS5003;62175;49.416;8.690;2023-11-22T15:35:17;10;10;
43280;PMS5003;62175;49.416;8.690;2023-11-22T15:37:44;9;9;
43280;PMS5003;62175;49.416;8.690;2023-11-22T15:40:11;6;6;
43280;PMS5003;62175;49.416;8.690;2023-11-22T15:42:39;8;8;
43280;PMS5003;62175;49.416;8.690;2023-11-22T15:45:07;9;9;
43280;PMS5003;62175;49.416;8.690;2023-11-22T15:47:35;10;10;
43280;PMS5003;62175;49.416;8.690;2023-11-22T15:50:02;8;7;
43280;PMS5003;62175;49.416;8.690;2023-11-22T15:52:30;9;9;
43280;PMS5003;62175;49.416;8.690;2023-11-22T15:54:57;10;8;
43280;PMS5003;62175;49.416;8.690;2023-11-22T15:57:24;11;8;
43280;PMS5003;62175;49.416;8.690;2023-11-22T15:59:52;13;11;
43280;PMS5003;62175;49.416;8.690;2023-11-22T16:02:19;9;8;
43280;PMS5003;62175;49.416;8.690;2023-11-22T16:04:46;11;11;
43280;PMS5003;62175;49.416;8.690;2023-11-22T16:07:14;9;8;
43280;PMS5003;62175;49.416;8.690;2023-11-22T16:09:41;12;11;
43280;PMS5003;62175;49.416;8.690;2023-11-22T16:12:08;11;10;
43280;PMS5003;62175;49.416;8.690;2023-11-22T16:14:35;9;9;
43280;PMS5003;62175;49.416;8.690;2023-11-22T16:17:03;10;10;
43280;PMS5003;62175;49.416;8.690;2023-11-22T16:19:30;11;10;
43280;PMS5003;62175;49.416;8.690;2023-11-22T16:21:58;11;10;
43280;PMS5003;62175;49.416;8.690;2023-11-22T16:24:25;9;9;
43280;PMS5003;62175;49.416;8.690;2023-11-22T16:26:52;9;8;
43280;PMS5003;62175;49.416;8.690;2023-11-22T16:29:19;12;9;
43280;PMS5003;62175;49.416;8.690;2023-11-22T16:31:47;10;10;
43280;PMS5003;62175;49.416;8.690;2023-11-22T16:34:14;11;11;
43280;PMS5003;62175;49.416;8.690;2023-11-22T16:36:42;13;12;
43280;PMS5003;62175;49.416;8.690;2023-11-22T16:39:09;15;12;
43280;PMS5003;62175;49.416;8.690;2023-11-22T16:41:36;15;13;
43280;PMS5003;62175;49.416;8.690;2023-11-22T16:44:03;12;11;
43280;PMS5003;62175;49.416;8.690;2023-11-22T16:46:30;12;11;
43280;PMS5003;62175;49.416;8.690;2023-11-22T16:48:57;14;12;
43280;PMS5003;62175;49.416;8.690;2023-11-22T16:51:24;15;13;
43280;PMS5003;62175;49.416;8.690;2023-11-22T16:53:52;14;13;